createdAt,value
2022-09-21T00:01:50.153Z,7.60
2022-09-21T00:04:51.753Z,7.60
2022-09-21T00:07:53.364Z,7.50
2022-09-21T00:10:54.978Z,7.50
2022-09-21T00:14:00.757Z,7.50
2022-09-21T00:17:02.500Z,7.50
2022-09-21T00:20:06.167Z,7.50
2022-09-21T00:23:07.755Z,7.50
2022-09-21T00:26:13.584Z,7.50
2022-09-21T00:29:15.268Z,7.40
2022-09-21T00:32:17.056Z,7.50
2022-09-21T00:35:18.828Z,7.50
2022-09-21T00:38:20.388Z,7.50
2022-09-21T00:41:22.485Z,7.50
2022-09-21T00:44:33.564Z,7.50
2022-09-21T00:47:44.593Z,7.50
2022-09-21T00:50:54.480Z,7.50
2022-09-21T00:54:03.679Z,7.40
2022-09-21T00:57:05.900Z,7.40
2022-09-21T01:00:09.972Z,7.40
2022-09-21T01:03:13.096Z,7.40
2022-09-21T01:06:17.900Z,7.30
2022-09-21T01:09:23.175Z,7.40
2022-09-21T01:12:55.977Z,7.30
2022-09-21T01:16:18.490Z,7.30
2022-09-21T01:19:43.512Z,7.30
2022-09-21T01:23:26.204Z,7.20
2022-09-21T01:26:58.000Z,7.20
2022-09-21T01:30:02.569Z,7.10
2022-09-21T01:33:30.208Z,7.10
2022-09-21T01:36:35.346Z,7.10
2022-09-21T01:39:38.888Z,7.00
2022-09-21T01:42:43.381Z,7.00
2022-09-21T01:45:50.303Z,7.00
2022-09-21T01:49:00.921Z,7.00
2022-09-21T01:52:11.284Z,7.00
2022-09-21T01:55:28.119Z,7.00
2022-09-21T01:58:43.583Z,7.00
2022-09-21T02:01:52.026Z,7.00
2022-09-21T02:04:53.836Z,6.90
2022-09-21T02:07:55.948Z,6.90
2022-09-21T02:10:59.581Z,6.80
2022-09-21T02:14:01.212Z,6.80
2022-09-21T02:17:27.053Z,6.70
2022-09-21T02:20:36.494Z,6.70
2022-09-21T02:23:47.396Z,6.70
2022-09-21T02:27:16.304Z,6.70
2022-09-21T02:30:23.651Z,6.80
2022-09-21T02:33:37.466Z,6.80
2022-09-21T02:37:11.419Z,6.80
2022-09-21T02:40:43.567Z,6.80
2022-09-21T02:43:56.853Z,6.80
2022-09-21T02:47:04.965Z,6.70
2022-09-21T02:50:14.242Z,6.70
2022-09-21T02:53:20.966Z,6.70
2022-09-21T02:56:23.512Z,6.70
2022-09-21T02:59:26.669Z,6.70
2022-09-21T03:02:42.992Z,6.70
2022-09-21T03:05:48.638Z,6.70
2022-09-21T03:08:50.381Z,6.70
2022-09-21T03:11:52.440Z,6.70
2022-09-21T03:14:54.244Z,6.60
2022-09-21T03:17:55.893Z,6.60
2022-09-21T03:20:57.821Z,6.70
2022-09-21T03:23:59.411Z,6.60
2022-09-21T03:27:01.017Z,6.60
2022-09-21T03:30:02.830Z,6.60
2022-09-21T03:33:08.730Z,6.60
2022-09-21T03:36:10.476Z,6.60
2022-09-21T03:39:12.069Z,6.60
2022-09-21T03:42:14.045Z,6.50
2022-09-21T03:45:15.774Z,6.50
2022-09-21T03:48:17.489Z,6.50
2022-09-21T03:51:19.076Z,6.50
2022-09-21T03:54:21.318Z,6.50
2022-09-21T03:57:36.824Z,6.50
2022-09-21T04:00:39.220Z,6.50
2022-09-21T04:03:40.834Z,6.50
2022-09-21T04:06:43.064Z,6.50
2022-09-21T04:09:44.686Z,6.50
2022-09-21T04:12:46.818Z,6.50
2022-09-21T04:15:48.441Z,6.50
2022-09-21T04:18:50.498Z,6.50
2022-09-21T04:21:52.101Z,6.40
2022-09-21T04:24:53.696Z,6.50
2022-09-21T04:27:55.539Z,6.50
2022-09-21T04:30:57.124Z,6.40
2022-09-21T04:33:59.037Z,6.40
2022-09-21T04:37:00.626Z,6.50
2022-09-21T04:40:02.882Z,6.40
2022-09-21T04:43:04.568Z,6.40
2022-09-21T04:46:12.462Z,6.50
2022-09-21T04:49:14.080Z,6.50
2022-09-21T04:52:18.995Z,6.50
2022-09-21T04:55:20.884Z,6.50
2022-09-21T04:58:24.681Z,6.50
2022-09-21T05:01:26.434Z,6.50
2022-09-21T05:04:28.078Z,6.40
2022-09-21T05:07:29.693Z,6.50
2022-09-21T05:10:31.284Z,6.60
2022-09-21T05:13:33.275Z,6.40
2022-09-21T05:16:35.685Z,6.40
2022-09-21T05:19:37.252Z,6.40
2022-09-21T05:22:38.911Z,6.40
2022-09-21T05:25:40.507Z,6.50
2022-09-21T05:28:42.423Z,6.50
2022-09-21T05:32:01.287Z,6.40
2022-09-21T05:35:30.203Z,6.50
2022-09-21T05:38:32.354Z,6.50
2022-09-21T05:41:34.345Z,6.60
2022-09-21T05:44:36.336Z,6.60
2022-09-21T05:48:08.967Z,6.60
2022-09-21T05:51:34.487Z,6.70
2022-09-21T05:54:56.633Z,6.80
2022-09-21T05:58:01.046Z,6.90
2022-09-21T06:01:29.296Z,7.00
2022-09-21T06:04:31.308Z,7.00
2022-09-21T06:07:32.895Z,7.10
2022-09-21T06:10:35.700Z,7.10
2022-09-21T06:13:37.512Z,7.10
2022-09-21T06:16:41.121Z,7.20
2022-09-21T06:19:45.417Z,7.20
2022-09-21T06:22:47.026Z,7.30
2022-09-21T06:25:57.529Z,7.30
2022-09-21T06:29:00.403Z,7.40
2022-09-21T06:32:13.313Z,7.50
2022-09-21T06:35:15.016Z,7.60
2022-09-21T06:38:16.618Z,7.60
2022-09-21T06:41:21.207Z,7.60
2022-09-21T06:44:23.161Z,7.70
2022-09-21T06:47:24.774Z,7.70
2022-09-21T06:50:26.635Z,7.80
2022-09-21T06:53:29.750Z,7.90
2022-09-21T06:56:31.728Z,8.00
2022-09-21T06:59:33.343Z,8.10
2022-09-21T07:02:35.228Z,8.10
2022-09-21T07:05:36.935Z,8.20
2022-09-21T07:12:26.212Z,8.30
2022-09-21T07:15:29.874Z,8.30
2022-09-21T07:18:42.516Z,8.40
2022-09-21T07:21:45.247Z,8.60
2022-09-21T07:24:46.841Z,8.70
2022-09-21T07:27:48.507Z,8.80
2022-09-21T07:30:50.217Z,8.90
2022-09-21T07:33:58.077Z,9.00
2022-09-21T07:36:59.707Z,9.30
2022-09-21T07:40:05.664Z,9.50
2022-09-21T07:43:07.557Z,9.70
2022-09-21T07:46:11.655Z,9.90
2022-09-21T07:49:13.457Z,9.90
2022-09-21T07:52:15.982Z,10.10
2022-09-21T07:55:17.609Z,10.20
2022-09-21T07:58:37.772Z,10.20
2022-09-21T08:01:41.687Z,10.40
2022-09-21T08:04:43.344Z,10.60
2022-09-21T08:07:44.958Z,10.70
2022-09-21T08:10:46.623Z,11.00
2022-09-21T08:14:09.560Z,11.30
2022-09-21T08:17:11.237Z,11.30
2022-09-21T08:20:13.783Z,11.40
2022-09-21T08:23:17.073Z,11.60
2022-09-21T08:26:20.481Z,11.50
2022-09-21T08:29:22.116Z,11.60
2022-09-21T08:32:49.532Z,11.60
2022-09-21T08:35:53.277Z,11.90
2022-09-21T08:38:56.582Z,11.90
2022-09-21T08:42:21.980Z,12.00
2022-09-21T08:45:28.944Z,12.20
2022-09-21T08:48:36.840Z,12.50
2022-09-21T08:51:46.939Z,12.90
2022-09-21T08:54:51.671Z,13.20
2022-09-21T08:57:53.357Z,13.40
2022-09-21T09:01:33.513Z,13.60
2022-09-21T09:05:12.730Z,13.90
2022-09-21T09:08:33.197Z,14.00
2022-09-21T09:12:13.458Z,14.00
2022-09-21T09:15:41.691Z,14.00
2022-09-21T09:18:53.066Z,14.00
2022-09-21T09:21:56.388Z,13.90
2022-09-21T09:25:05.859Z,13.90
2022-09-21T09:28:40.153Z,13.80
2022-09-21T09:31:42.450Z,13.70
2022-09-21T09:35:04.795Z,13.80
2022-09-21T09:38:36.220Z,13.60
2022-09-21T09:41:54.149Z,13.60
2022-09-21T09:45:26.283Z,13.60
2022-09-21T09:49:05.582Z,13.80
2022-09-21T09:52:10.762Z,13.80
2022-09-21T09:55:30.244Z,13.80
2022-09-21T09:58:37.317Z,13.90
2022-09-21T10:01:42.643Z,13.90
2022-09-21T10:05:08.919Z,13.90
2022-09-21T10:08:36.768Z,13.90
2022-09-21T10:11:38.805Z,13.90
2022-09-21T10:14:49.296Z,14.00
2022-09-21T10:18:41.165Z,14.20
2022-09-21T10:21:46.607Z,14.60
2022-09-21T10:24:52.760Z,15.00
2022-09-21T10:27:56.645Z,15.40
2022-09-21T10:31:33.357Z,15.60
2022-09-21T10:34:35.561Z,15.80
2022-09-21T10:37:41.168Z,15.60
2022-09-21T10:40:59.237Z,15.50
2022-09-21T10:44:00.973Z,15.40
2022-09-21T10:47:16.832Z,15.30
2022-09-21T10:50:41.586Z,15.40
2022-09-21T10:53:53.897Z,15.50
2022-09-21T10:57:00.973Z,15.70
2022-09-21T11:00:21.401Z,15.90
2022-09-21T11:03:42.222Z,16.00
2022-09-21T11:06:54.343Z,16.20
2022-09-21T11:10:03.504Z,16.20
2022-09-21T11:13:23.208Z,16.10
2022-09-21T11:16:27.625Z,16.20
2022-09-21T11:20:29.072Z,16.20
2022-09-21T11:24:03.230Z,16.30
2022-09-21T11:27:40.030Z,16.40
2022-09-21T11:31:13.190Z,16.40
2022-09-21T11:34:44.380Z,16.40
2022-09-21T11:37:56.455Z,16.30
2022-09-21T11:41:11.116Z,16.20
2022-09-21T11:44:47.572Z,16.10
2022-09-21T11:48:13.389Z,16.10
2022-09-21T11:51:55.961Z,15.90
2022-09-21T11:55:23.443Z,15.90
2022-09-21T11:58:54.074Z,15.80
2022-09-21T12:02:03.182Z,15.70
2022-09-21T12:05:26.831Z,15.70
2022-09-21T12:08:37.342Z,15.50
2022-09-21T12:11:48.848Z,15.40
2022-09-21T12:19:36.327Z,15.40
2022-09-21T12:22:42.695Z,15.50
2022-09-21T12:25:53.124Z,15.60
2022-09-21T12:29:27.519Z,15.60
2022-09-21T12:32:47.464Z,15.70
2022-09-21T12:36:17.266Z,15.80
2022-09-21T12:39:25.908Z,15.90
2022-09-21T12:42:44.906Z,15.90
2022-09-21T12:45:54.718Z,15.80
2022-09-21T12:48:58.899Z,15.90
2022-09-21T12:52:06.791Z,15.90
2022-09-21T12:55:08.465Z,15.90
2022-09-21T12:58:22.339Z,15.80
2022-09-21T13:01:45.784Z,15.80
2022-09-21T13:04:58.779Z,15.80
2022-09-21T13:08:25.261Z,15.80
2022-09-21T13:11:27.060Z,15.90
2022-09-21T13:14:34.627Z,15.80
2022-09-21T13:17:36.618Z,15.80
2022-09-21T13:20:40.071Z,15.80
2022-09-21T13:23:42.852Z,15.80
2022-09-21T13:26:52.291Z,15.60
2022-09-21T13:30:32.537Z,15.60
2022-09-21T13:33:39.345Z,15.50
2022-09-21T13:36:43.152Z,15.50
2022-09-21T13:39:50.727Z,15.40
2022-09-21T13:42:52.745Z,15.40
2022-09-21T13:45:55.891Z,15.30
2022-09-21T13:48:59.534Z,15.20
2022-09-21T13:52:03.069Z,15.20
2022-09-21T13:55:14.740Z,15.00
2022-09-21T13:58:21.140Z,15.00
2022-09-21T14:01:46.913Z,15.00
2022-09-21T14:04:50.715Z,14.90
2022-09-21T14:08:02.658Z,14.90
2022-09-21T14:11:36.557Z,14.80
2022-09-21T14:14:39.889Z,14.80
2022-09-21T14:17:42.540Z,14.70
2022-09-21T14:21:10.429Z,14.70
2022-09-21T14:24:33.836Z,14.70
2022-09-21T14:27:45.420Z,14.60
2022-09-21T14:30:56.283Z,14.70
2022-09-21T14:34:02.956Z,14.80
2022-09-21T14:37:30.841Z,14.60
2022-09-21T14:40:45.458Z,14.60
2022-09-21T14:43:53.620Z,14.70
2022-09-21T14:47:46.542Z,14.60
2022-09-21T14:51:01.570Z,14.80
2022-09-21T14:54:34.299Z,14.60
2022-09-21T14:57:48.413Z,14.60
2022-09-21T15:00:51.250Z,14.60
2022-09-21T15:04:25.244Z,14.70
2022-09-21T15:08:04.124Z,14.60
2022-09-21T15:11:30.501Z,14.60
2022-09-21T15:14:41.240Z,14.60
2022-09-21T15:17:59.794Z,14.70
2022-09-21T15:21:04.061Z,14.60
2022-09-21T15:24:27.711Z,14.70
2022-09-21T15:27:33.040Z,14.70
2022-09-21T15:30:45.756Z,14.80
2022-09-21T15:33:48.905Z,14.70
2022-09-21T15:36:52.779Z,15.00
2022-09-21T15:40:08.524Z,14.80
2022-09-21T15:43:15.768Z,14.70
2022-09-21T15:46:19.837Z,14.70
2022-09-21T15:49:21.953Z,14.80
2022-09-21T15:52:45.293Z,14.70
2022-09-21T15:55:48.463Z,14.70
2022-09-21T15:58:50.704Z,14.80
2022-09-21T16:01:55.448Z,14.70
2022-09-21T16:04:57.120Z,14.70
2022-09-21T16:08:26.178Z,14.60
2022-09-21T16:11:27.872Z,14.60
2022-09-21T16:14:47.992Z,14.60
2022-09-21T16:18:01.490Z,14.50
2022-09-21T16:21:12.140Z,14.40
2022-09-21T16:24:19.447Z,14.40
2022-09-21T16:27:24.711Z,14.40
2022-09-21T16:30:48.350Z,14.30
2022-09-21T16:33:49.883Z,14.20
2022-09-21T16:36:53.876Z,14.20
2022-09-21T16:39:57.908Z,14.10
2022-09-21T16:42:59.865Z,14.10
2022-09-21T16:46:03.393Z,14.00
2022-09-21T16:49:06.589Z,14.10
2022-09-21T16:52:12.450Z,14.10
2022-09-21T16:55:15.940Z,14.00
2022-09-21T16:58:20.529Z,13.90
2022-09-21T17:01:22.164Z,13.80
2022-09-21T17:04:41.917Z,13.70
2022-09-21T17:07:55.594Z,13.70
2022-09-21T17:10:57.897Z,13.60
2022-09-21T17:14:01.259Z,13.60
2022-09-21T17:17:32.966Z,13.50
2022-09-21T17:20:52.705Z,13.50
2022-09-21T17:23:54.281Z,13.30
2022-09-21T17:26:55.864Z,13.30
2022-09-21T17:29:58.336Z,13.30
2022-09-21T17:33:01.070Z,13.20
2022-09-21T17:36:06.509Z,13.20
2022-09-21T17:39:08.112Z,13.10
2022-09-21T17:42:18.671Z,13.00
2022-09-21T17:45:38.647Z,12.90
2022-09-21T17:48:40.971Z,12.80
2022-09-21T17:52:01.248Z,12.80
2022-09-21T17:55:08.245Z,12.70
2022-09-21T17:58:33.325Z,12.50
2022-09-21T18:01:38.687Z,12.30
2022-09-21T18:04:40.547Z,12.20
2022-09-21T18:07:42.451Z,12.10
2022-09-21T18:11:10.924Z,12.00
2022-09-21T18:14:52.863Z,12.00
2022-09-21T18:18:15.664Z,11.90
2022-09-21T18:21:20.719Z,11.90
2022-09-21T18:24:31.043Z,11.90
2022-09-21T18:27:34.401Z,11.90
2022-09-21T18:30:45.554Z,11.80
2022-09-21T18:34:17.280Z,11.80
2022-09-21T18:37:49.568Z,11.70
2022-09-21T18:41:00.932Z,11.70
2022-09-21T18:44:21.408Z,11.60
2022-09-21T18:47:34.921Z,11.60
2022-09-21T18:50:53.916Z,11.50
2022-09-21T18:53:57.097Z,11.40
2022-09-21T18:56:59.136Z,11.40
2022-09-21T19:00:01.041Z,11.30
2022-09-21T19:03:18.231Z,11.30
2022-09-21T19:06:27.143Z,11.30
2022-09-21T19:09:56.899Z,11.30
2022-09-21T19:13:37.694Z,11.50
2022-09-21T19:16:48.325Z,11.20
2022-09-21T19:20:10.013Z,11.10
2022-09-21T19:23:14.629Z,11.10
2022-09-21T19:26:37.831Z,11.10
2022-09-21T19:30:04.365Z,11.10
2022-09-21T19:33:45.620Z,11.10
2022-09-21T19:36:42.817Z,11.10
2022-09-21T19:39:44.700Z,11.10
2022-09-21T19:42:55.309Z,11.00
2022-09-21T19:46:22.560Z,11.00
2022-09-21T19:49:33.484Z,11.00
2022-09-21T19:52:36.184Z,11.00
2022-09-21T19:55:58.020Z,10.90
2022-09-21T19:59:18.851Z,10.90
2022-09-21T20:02:32.561Z,10.90
2022-09-21T20:05:57.254Z,10.90
2022-09-21T20:09:08.387Z,11.00
2022-09-21T20:12:21.705Z,11.00
2022-09-21T20:15:31.453Z,10.80
2022-09-21T20:19:01.761Z,11.00
2022-09-21T20:22:13.576Z,11.00
2022-09-21T20:25:32.324Z,11.00
2022-09-21T20:28:35.882Z,10.90
2022-09-21T20:31:40.298Z,10.90
2022-09-21T20:34:42.139Z,10.90
2022-09-21T20:37:44.423Z,10.90
2022-09-21T20:40:51.549Z,10.90
2022-09-21T20:43:53.260Z,10.90
2022-09-21T20:46:54.832Z,11.00
2022-09-21T20:49:56.531Z,10.90
2022-09-21T20:52:58.310Z,10.80
2022-09-21T20:56:01.887Z,10.80
2022-09-21T20:59:03.576Z,10.70
2022-09-21T21:02:07.609Z,10.60
2022-09-21T21:05:11.097Z,10.80
2022-09-21T21:08:12.877Z,11.10
2022-09-21T21:11:14.514Z,10.70
2022-09-21T21:14:16.106Z,10.60
2022-09-21T21:17:18.428Z,10.70
2022-09-21T21:20:20.237Z,10.60
2022-09-21T21:23:21.832Z,10.50
2022-09-21T21:26:38.130Z,10.60
2022-09-21T21:29:50.380Z,10.60
2022-09-21T21:32:53.057Z,10.60
2022-09-21T21:36:07.388Z,10.50
2022-09-21T21:39:10.522Z,10.50
2022-09-21T21:42:12.617Z,10.50
2022-09-21T21:45:16.389Z,10.50
2022-09-21T21:48:17.976Z,10.40
2022-09-21T21:51:19.571Z,10.30
2022-09-21T21:54:23.166Z,10.30
2022-09-21T21:57:24.802Z,10.20
2022-09-21T22:00:26.403Z,10.20
2022-09-21T22:03:27.984Z,10.10
2022-09-21T22:06:31.056Z,10.10
2022-09-21T22:09:32.919Z,10.10
2022-09-21T22:12:35.603Z,10.10
2022-09-21T22:15:50.321Z,10.00
2022-09-21T22:18:52.685Z,10.00
2022-09-21T22:21:56.467Z,9.90
2022-09-21T22:24:58.062Z,9.80
2022-09-21T22:28:00.193Z,9.80
2022-09-21T22:31:09.577Z,9.50
2022-09-21T22:34:12.491Z,9.80
2022-09-21T22:37:14.146Z,9.50
2022-09-21T22:40:15.863Z,9.30
2022-09-21T22:43:17.541Z,9.30
2022-09-21T22:46:19.960Z,9.30
2022-09-21T22:49:21.563Z,9.30
2022-09-21T22:52:23.267Z,9.30
2022-09-21T22:55:24.848Z,9.50
2022-09-21T22:58:26.446Z,9.30
2022-09-21T23:01:31.175Z,9.20
2022-09-21T23:04:32.805Z,9.20
2022-09-21T23:07:34.442Z,9.10
2022-09-21T23:10:36.180Z,8.90
2022-09-21T23:13:38.021Z,8.90
2022-09-21T23:16:39.716Z,8.90
2022-09-21T23:19:41.414Z,8.90
2022-09-21T23:22:43.380Z,8.90
2022-09-21T23:25:44.987Z,8.90
2022-09-21T23:28:52.067Z,8.90
2022-09-21T23:31:53.728Z,8.90
2022-09-21T23:34:58.076Z,8.80
2022-09-21T23:37:59.672Z,8.70
2022-09-21T23:41:11.588Z,8.70
2022-09-21T23:44:13.376Z,8.70
2022-09-21T23:47:14.969Z,8.60
2022-09-21T23:50:16.929Z,8.70
2022-09-21T23:53:20.178Z,8.60
2022-09-21T23:56:23.432Z,8.60
2022-09-21T23:59:25.127Z,8.60
